Time;durP1;ratioP1;P1;durP2;ratioP2;P2;SDS_P1;SDS_P2;PMS_P1;PMS_P2;Temp;Humidity;BMP_temperature;BMP_pressure;BME280_temperature;BME280_humidity;BME280_pressure;Samples;Min_cycle;Max_cycle;Signal;HPM_P1;HPM_P2
2022/12/27 00:01:32;;;;;;;30.37;17.37;;;;;;;3.62;82.10;97756.34;4895161;29;20675;-71
2022/12/27 00:04:00;;;;;;;29.97;17.83;;;;;;;3.47;82.62;97751.31;4894572;29;20628;-72
2022/12/27 00:06:27;;;;;;;28.07;17.27;;;;;;;3.32;83.83;97761.69;4895398;29;20208;-72
2022/12/27 00:08:55;;;;;;;26.63;17.60;;;;;;;3.13;84.39;97754.09;4894698;29;20286;-71
2022/12/27 00:11:25;;;;;;;27.13;18.13;;;;;;;3.03;85.05;97762.66;4894822;29;20218;-71
2022/12/27 00:13:52;;;;;;;25.30;16.53;;;;;;;2.97;85.91;97770.38;4894773;29;20317;-72
2022/12/27 00:16:20;;;;;;;22.73;13.63;;;;;;;2.99;86.28;97766.09;4894341;29;20222;-72
2022/12/27 00:18:48;;;;;;;19.37;12.77;;;;;;;2.89;86.44;97767.00;4895331;29;20687;-72
2022/12/27 00:21:16;;;;;;;22.83;13.43;;;;;;;2.90;86.85;97766.16;4894162;29;20286;-71
2022/12/27 00:23:51;;;;;;;22.90;14.37;;;;;;;2.99;87.01;97763.53;4894985;29;20206;-72
2022/12/27 00:26:25;;;;;;;21.17;13.43;;;;;;;3.05;86.07;97752.44;4894211;29;20579;-72
2022/12/27 00:28:52;;;;;;;23.50;15.90;;;;;;;3.17;86.25;97753.22;4894359;29;20194;-72
2022/12/27 00:31:21;;;;;;;22.37;14.33;;;;;;;3.05;86.08;97757.56;4894453;29;20686;-71
2022/12/27 00:33:50;;;;;;;18.00;12.53;;;;;;;3.05;87.36;97755.84;4893930;29;20211;-72
2022/12/27 00:36:23;;;;;;;23.57;14.20;;;;;;;3.15;87.47;97744.69;4894956;29;20219;-72
2022/12/27 00:38:51;;;;;;;18.30;12.10;;;;;;;3.17;87.33;97731.91;4892693;29;20237;-72
2022/12/27 00:41:19;;;;;;;16.70;10.47;;;;;;;3.22;87.60;97731.00;4894529;29;20672;-72
2022/12/27 00:43:46;;;;;;;19.53;10.80;;;;;;;3.29;87.21;97742.94;4894213;29;20202;-72
2022/12/27 00:46:14;;;;;;;20.73;11.03;;;;;;;3.39;85.97;97742.84;4894390;29;20198;-72
2022/12/27 00:48:41;;;;;;;17.10;11.03;;;;;;;3.51;85.89;97738.50;4881589;29;20223;-72
2022/12/27 00:51:18;;;;;;;14.83;10.23;;;;;;;3.39;85.97;97720.66;4892330;29;20195;-72
2022/12/27 00:53:46;;;;;;;15.40;8.83;;;;;;;3.42;86.38;97742.84;4892808;29;20206;-72
2022/12/27 00:56:15;;;;;;;15.53;8.80;;;;;;;3.51;86.61;97733.38;4893450;29;20191;-72
2022/12/27 00:58:42;;;;;;;14.47;9.17;;;;;;;3.53;86.72;97723.13;4894224;29;20195;-72
2022/12/27 01:01:18;;;;;;;14.73;9.23;;;;;;;3.58;86.39;97735.03;4893735;29;20191;-72
2022/12/27 01:03:46;;;;;;;15.47;9.50;;;;;;;3.66;86.16;97737.53;4894169;29;20201;-71
2022/12/27 01:06:16;;;;;;;16.00;9.87;;;;;;;3.58;86.29;97734.19;4894202;29;20201;-71
2022/12/27 01:08:44;;;;;;;16.30;9.07;;;;;;;3.62;86.13;97730.75;4893282;29;20219;-71
2022/12/27 01:11:11;;;;;;;15.23;10.27;;;;;;;3.60;86.03;97738.44;4893331;29;20195;-72
2022/12/27 01:13:39;;;;;;;14.70;9.23;;;;;;;3.59;86.07;97731.59;4893047;29;20314;-71
2022/12/27 01:16:18;;;;;;;14.40;9.63;;;;;;;3.75;85.56;97727.25;4893803;29;20257;-72
2022/12/27 01:18:46;;;;;;;19.73;10.87;;;;;;;3.67;85.13;97729.00;4893632;29;20207;-71
2022/12/27 01:21:16;;;;;;;17.53;10.37;;;;;;;3.60;85.07;97727.34;4893294;29;20195;-71
2022/12/27 01:23:44;;;;;;;14.67;9.23;;;;;;;3.46;84.46;97727.47;4893983;29;20231;-72
2022/12/27 01:26:17;;;;;;;14.00;8.93;;;;;;;3.36;85.04;97713.00;4876168;29;20286;-72
2022/12/27 01:28:45;;;;;;;14.37;8.40;;;;;;;3.34;84.67;97707.03;4894015;29;20278;-71
2022/12/27 01:31:15;;;;;;;12.10;8.00;;;;;;;3.29;84.79;97709.66;4876534;29;20200;-72
2022/12/27 01:33:42;;;;;;;14.40;9.17;;;;;;;3.23;85.30;97714.81;4892122;29;20192;-72
2022/12/27 01:36:14;;;;;;;14.93;8.90;;;;;;;3.23;85.51;97711.41;4893284;29;20244;-72
2022/12/27 01:38:42;;;;;;;14.73;9.13;;;;;;;3.20;85.17;97719.06;4893004;29;20225;-72
2022/12/27 01:44:38;;;;;;;16.27;9.67;;;;;;;3.01;85.64;97710.66;4893091;29;20306;-71
2022/12/27 01:47:32;;;;;;;13.97;9.80;;;;;;;3.07;85.57;97699.56;4893136;29;21162;-71
2022/12/27 01:50:24;;;;;;;18.73;10.73;;;;;;;3.06;85.18;97691.03;4893617;29;20268;-72
2022/12/27 01:52:58;;;;;;;20.50;11.53;;;;;;;3.08;85.12;97694.44;4892843;29;20223;-72
2022/12/27 01:55:48;;;;;;;19.83;11.60;;;;;;;3.04;85.41;97689.34;4892810;29;20244;-71
2022/12/27 01:58:25;;;;;;;22.27;12.60;;;;;;;3.12;85.94;97679.91;4893401;29;20192;-72
2022/12/27 02:00:52;;;;;;;29.33;16.33;;;;;;;3.19;85.72;97691.81;4892306;29;20191;-71
2022/12/27 02:03:34;;;;;;;22.20;14.03;;;;;;;3.26;85.44;97691.75;4893317;29;20752;-72
2022/12/27 02:06:03;;;;;;;21.43;13.10;;;;;;;3.25;85.07;97695.19;4892753;29;20640;-72
2022/12/27 02:08:54;;;;;;;17.53;11.83;;;;;;;3.15;85.96;97693.50;4892667;29;20195;-72
2022/12/27 02:14:14;;;;;;;16.10;11.43;;;;;;;3.25;84.86;97674.72;4892380;29;20295;-71
2022/12/27 02:17:05;;;;;;;16.53;10.30;;;;;;;3.23;85.23;97673.00;4865641;29;20328;-71
2022/12/27 02:19:41;;;;;;;18.20;11.33;;;;;;;3.07;85.57;97679.91;4892632;29;20668;-71
2022/12/27 02:26:04;;;;;;;18.13;10.17;;;;;;;3.13;85.66;97685.00;4877494;29;20207;-72
2022/12/27 02:28:52;;;;;;;17.27;10.40;;;;;;;3.30;85.08;97688.31;4892728;29;20587;-72
2022/12/27 02:31:44;;;;;;;16.50;11.60;;;;;;;3.26;84.77;97671.28;4890661;29;20201;-72
2022/12/27 02:34:22;;;;;;;20.57;12.07;;;;;;;3.18;85.33;97675.59;4875335;29;20191;-72
2022/12/27 02:36:53;;;;;;;19.57;11.40;;;;;;;3.10;86.37;97676.50;4875685;29;20742;-72
2022/12/27 02:39:23;;;;;;;18.77;12.13;;;;;;;3.16;86.62;97669.63;4874871;29;20289;-72
2022/12/27 02:53:21;;;;;;;16.13;10.87;;;;;;;3.08;87.81;97655.19;4891642;29;20203;-72
2022/12/27 02:59:35;;;;;;;12.70;8.43;;;;;;;3.26;87.37;97661.03;4892348;29;20676;-72
2022/12/27 03:05:18;;;;;;;14.17;8.87;;;;;;;3.37;87.19;97660.97;4891689;29;20187;-71
2022/12/27 03:08:21;;;;;;;14.30;8.30;;;;;;;3.40;87.39;97655.81;4892289;29;20289;-72
2022/12/27 03:16:54;;;;;;;15.30;9.90;;;;;;;3.44;86.13;97669.44;4892316;29;20282;-72
2022/12/27 03:33:40;;;;;;;14.40;8.47;;;;;;;3.21;88.08;97642.28;4891793;29;20203;-72
2022/12/27 03:39:29;;;;;;;14.73;8.60;;;;;;;3.30;87.21;97647.34;4895318;29;20188;-72
2022/12/27 03:44:49;;;;;;;21.70;10.17;;;;;;;3.41;86.57;97646.41;4894913;29;20223;-72
2022/12/27 03:47:38;;;;;;;16.40;9.87;;;;;;;3.40;85.97;97647.28;4896031;29;20688;-72
2022/12/27 03:50:15;;;;;;;14.10;8.37;;;;;;;3.40;85.28;97647.28;4895158;29;20243;-72
2022/12/27 03:52:50;;;;;;;17.50;9.10;;;;;;;3.45;85.23;97656.63;4894849;29;20194;-72
2022/12/27 03:55:18;;;;;;;16.50;9.20;;;;;;;3.45;85.22;97636.16;4895456;29;20214;-72
2022/12/27 03:57:45;;;;;;;12.80;8.57;;;;;;;3.45;85.02;97650.66;4894391;29;20647;-72
2022/12/27 04:00:12;;;;;;;15.43;8.63;;;;;;;3.48;85.02;97645.53;4878461;29;20247;-71
2022/12/27 04:02:40;;;;;;;12.03;7.77;;;;;;;3.49;85.31;97644.63;4895488;29;20192;-72
2022/12/27 04:05:07;;;;;;;16.00;9.17;;;;;;;3.39;85.18;97649.00;4895181;29;20195;-72
2022/12/27 04:07:34;;;;;;;13.37;9.10;;;;;;;3.41;85.62;97648.97;4895156;29;20770;-72
2022/12/27 04:34:50;;;;;;;12.80;7.20;;;;;;;3.04;87.25;97649.25;4894794;29;20203;-71
2022/12/27 04:37:18;;;;;;;9.83;6.83;;;;;;;3.07;87.76;97649.22;4894195;29;20699;-70
2022/12/27 04:56:20;;;;;;;11.87;7.80;;;;;;;3.18;87.47;97652.56;4875654;29;20225;-72
2022/12/27 05:04:18;;;;;;;17.23;9.77;;;;;;;3.48;85.91;97637.84;4875409;29;20200;-72
2022/12/27 05:06:45;;;;;;;15.90;9.73;;;;;;;3.48;85.92;97637.84;4889233;29;20234;-72
2022/12/27 05:13:58;;;;;;;15.47;9.13;;;;;;;3.45;86.07;97645.53;4893226;29;20587;-72
2022/12/27 05:14:46;;;;;;;15.87;8.87;;;;;;;3.44;86.74;97644.69;4893366;29;20223;-71
2022/12/27 05:17:13;;;;;;;13.70;8.60;;;;;;;3.54;85.95;97638.63;4893587;29;20207;-71
2022/12/27 05:19:40;;;;;;;15.60;9.43;;;;;;;3.56;86.36;97648.84;4893212;29;20558;-71
2022/12/27 05:27:38;;;;;;;17.87;10.37;;;;;;;3.67;85.76;97647.06;4874766;29;20224;-72
2022/12/27 05:30:05;;;;;;;14.37;8.67;;;;;;;3.59;85.53;97643.69;4858582;29;20199;-72
2022/12/27 05:32:32;;;;;;;15.30;10.00;;;;;;;3.45;85.54;97640.41;4886867;29;20297;-72
2022/12/27 05:34:59;;;;;;;14.37;9.13;;;;;;;3.42;85.77;97640.44;4893821;29;20192;-73
2022/12/27 05:37:26;;;;;;;18.43;10.80;;;;;;;3.50;85.25;97643.78;4892886;29;20614;-73
2022/12/27 05:39:52;;;;;;;17.40;11.27;;;;;;;3.48;85.09;97631.00;4876460;29;20593;-73
2022/12/27 05:42:19;;;;;;;21.60;12.33;;;;;;;3.52;84.91;97652.31;4893047;29;20231;-72
2022/12/27 05:44:46;;;;;;;23.00;12.97;;;;;;;3.46;84.46;97652.38;4893122;29;20256;-72
2022/12/27 05:47:13;;;;;;;25.97;14.57;;;;;;;3.45;84.71;97659.19;4893105;29;20679;-72
2022/12/27 05:49:40;;;;;;;21.13;12.30;;;;;;;3.53;84.60;97652.28;4892690;29;20195;-72
2022/12/27 05:52:07;;;;;;;26.80;13.73;;;;;;;3.57;84.39;97645.41;4893479;29;20285;-72
2022/12/27 05:54:34;;;;;;;23.77;13.93;;;;;;;3.42;84.03;97666.88;4892239;29;20202;-72
2022/12/27 05:57:01;;;;;;;25.30;15.20;;;;;;;3.36;84.56;97649.00;4891754;29;20251;-72
2022/12/27 05:59:28;;;;;;;23.83;13.87;;;;;;;3.36;84.89;97650.75;4892175;29;20705;-72
2022/12/27 06:01:55;;;;;;;23.87;14.17;;;;;;;3.40;84.89;97662.66;4892640;29;20203;-73
2022/12/27 06:04:22;;;;;;;24.77;13.40;;;;;;;3.35;84.22;97654.16;4891940;29;20203;-72
2022/12/27 06:06:49;;;;;;;32.60;14.40;;;;;;;3.41;84.24;97648.97;4892428;29;20195;-72
2022/12/27 06:09:16;;;;;;;26.43;13.40;;;;;;;3.59;83.82;97664.19;4892849;29;20209;-73
2022/12/27 06:11:43;;;;;;;27.73;14.73;;;;;;;3.43;83.71;97622.50;4891392;29;20198;-72
2022/12/27 06:14:10;;;;;;;25.83;13.90;;;;;;;3.70;83.37;97663.25;4891930;29;20240;-72
2022/12/27 06:16:37;;;;;;;24.07;12.63;;;;;;;3.82;83.67;97664.81;4892056;29;21253;-72
2022/12/27 06:19:04;;;;;;;32.50;16.53;;;;;;;3.71;83.39;97652.13;4892540;29;20199;-72
2022/12/27 06:21:31;;;;;;;33.37;16.07;;;;;;;3.80;83.11;97658.88;4893068;29;20666;-71
2022/12/27 06:23:58;;;;;;;31.07;16.77;;;;;;;3.82;82.58;97659.72;4892069;29;20249;-74
2022/12/27 06:26:28;;;;;;;38.40;18.97;;;;;;;3.72;82.53;97660.66;4876369;29;20207;-74
2022/12/27 06:28:57;;;;;;;26.73;16.87;;;;;;;3.72;82.07;97661.50;4875269;29;20246;-74
2022/12/27 06:31:26;;;;;;;20.90;13.20;;;;;;;3.72;82.28;97670.91;4891318;29;20299;-72
2022/12/27 06:33:56;;;;;;;20.20;14.20;;;;;;;3.50;82.29;97643.78;4891952;29;20205;-71
2022/12/27 06:36:29;;;;;;;20.80;13.30;;;;;;;3.47;83.15;97674.53;4891508;29;20265;-72
2022/12/27 06:38:57;;;;;;;24.13;13.17;;;;;;;3.57;83.04;97660.78;4891471;29;20204;-73
2022/12/27 06:41:24;;;;;;;19.40;11.47;;;;;;;3.49;83.41;97667.69;4891238;29;20255;-72
2022/12/27 06:43:56;;;;;;;14.63;10.10;;;;;;;3.53;83.99;97674.47;4891900;29;20903;-73
2022/12/27 06:46:24;;;;;;;18.13;11.20;;;;;;;3.51;84.41;97669.38;4891740;29;20805;-72
2022/12/27 06:48:51;;;;;;;23.37;14.00;;;;;;;3.67;83.99;97675.22;4891773;29;20278;-73
2022/12/27 06:51:19;;;;;;;26.47;17.10;;;;;;;3.74;84.40;97661.50;4891171;29;20191;-72
2022/12/27 06:53:47;;;;;;;24.00;15.53;;;;;;;3.82;83.95;97667.41;4890971;29;20313;-72
2022/12/27 06:56:18;;;;;;;30.50;18.73;;;;;;;4.06;83.68;97668.00;4891277;29;20921;-73
2022/12/27 06:58:46;;;;;;;29.17;18.13;;;;;;;3.98;83.30;97669.78;4891748;29;20870;-72
2022/12/27 07:01:17;;;;;;;26.57;18.13;;;;;;;4.17;83.29;97665.31;4891270;29;20204;-72
2022/12/27 07:03:52;;;;;;;25.70;16.83;;;;;;;4.18;83.15;97655.94;4890848;29;20596;-73
2022/12/27 07:06:20;;;;;;;24.70;15.83;;;;;;;4.29;83.33;97665.19;4892164;29;20192;-72
2022/12/27 07:08:49;;;;;;;23.70;15.07;;;;;;;4.44;82.60;97654.78;4890147;29;20199;-71
2022/12/27 07:11:18;;;;;;;31.07;16.87;;;;;;;4.46;82.57;97647.06;4890471;29;20661;-72
2022/12/27 07:13:49;;;;;;;22.50;15.67;;;;;;;4.48;82.79;97646.16;4891063;29;20227;-71
2022/12/27 07:16:20;;;;;;;25.17;16.63;;;;;;;4.44;82.99;97651.34;4871705;29;20710;-73
2022/12/27 07:18:48;;;;;;;32.20;18.83;;;;;;;4.54;83.05;97658.06;4872791;29;20666;-73
2022/12/27 07:21:23;;;;;;;27.90;17.50;;;;;;;4.11;82.56;97591.06;4871241;29;20775;-73
2022/12/27 07:23:50;;;;;;;29.90;17.93;;;;;;;4.67;82.24;97647.66;4887518;29;20208;-72
2022/12/27 07:26:28;;;;;;;57.57;37.43;;;;;;;4.59;81.18;97639.19;4874615;29;20215;-71
2022/12/27 07:29:00;;;;;;;49.33;31.90;;;;;;;4.97;82.47;97650.69;4890225;29;20224;-73
2022/12/27 07:31:30;;;;;;;39.70;24.07;;;;;;;5.08;80.76;97651.34;4891256;29;20212;-73
2022/12/27 07:34:00;;;;;;;31.97;20.50;;;;;;;5.27;80.60;97650.22;4875006;29;20275;-73
2022/12/27 07:36:32;;;;;;;30.40;19.30;;;;;;;5.38;80.78;97640.63;4891339;29;20228;-73
2022/12/27 07:38:59;;;;;;;27.77;18.73;;;;;;;5.47;80.02;97638.75;4873834;29;20650;-72
2022/12/27 07:41:26;;;;;;;24.50;17.53;;;;;;;5.61;79.36;97644.50;4890047;29;20212;-73
2022/12/27 07:43:53;;;;;;;32.57;20.30;;;;;;;5.67;80.03;97641.84;4890778;29;20192;-74
2022/12/27 07:46:23;;;;;;;43.37;25.60;;;;;;;5.84;79.12;97643.28;4891284;29;20261;-73
2022/12/27 07:48:55;;;;;;;44.23;27.23;;;;;;;6.13;78.77;97629.06;4890711;29;20289;-73
2022/12/27 07:51:24;;;;;;;44.33;27.90;;;;;;;6.12;77.92;97596.47;4890568;29;20642;-73
2022/12/27 07:53:51;;;;;;;38.47;24.23;;;;;;;6.38;78.69;97640.56;4894943;29;20264;-73
2022/12/27 07:56:21;;;;;;;39.53;23.67;;;;;;;6.53;77.17;97642.81;4876615;29;20248;-73
2022/12/27 07:58:54;;;;;;;30.80;18.83;;;;;;;6.62;76.50;97648.66;4891371;29;20241;-71
2022/12/27 08:01:22;;;;;;;33.13;19.47;;;;;;;6.73;76.24;97650.13;4886265;29;20285;-71
2022/12/27 08:03:51;;;;;;;25.90;15.93;;;;;;;7.00;76.08;97638.41;4890907;29;20198;-72
2022/12/27 08:06:28;;;;;;;22.57;14.93;;;;;;;6.95;75.81;97640.22;4888783;29;20226;-72
2022/12/27 08:08:57;;;;;;;21.47;13.67;;;;;;;6.94;75.48;97631.66;4889942;29;20652;-72
2022/12/27 08:11:28;;;;;;;15.87;10.53;;;;;;;6.91;75.54;97623.16;4887904;29;20249;-73
2022/12/27 08:13:56;;;;;;;22.53;13.37;;;;;;;7.17;75.67;97644.03;4891406;29;20741;-72
2022/12/27 08:16:25;;;;;;;15.40;11.07;;;;;;;7.11;75.13;97631.28;4888154;29;20608;-72
2022/12/27 08:18:53;;;;;;;14.27;9.40;;;;;;;7.10;74.19;97624.44;4890112;29;20294;-72
2022/12/27 08:21:20;;;;;;;14.30;9.70;;;;;;;7.08;76.54;97631.34;4890714;29;20203;-72
2022/12/27 08:23:47;;;;;;;18.50;12.77;;;;;;;7.11;76.68;97637.25;4892286;29;20207;-74
2022/12/27 08:26:14;;;;;;;23.30;12.13;;;;;;;7.08;77.12;97637.34;4893966;29;20686;-71
2022/12/27 08:28:42;;;;;;;29.43;14.10;;;;;;;7.16;76.80;97619.13;4891823;29;20745;-73
2022/12/27 08:31:11;;;;;;;17.93;11.50;;;;;;;7.31;76.83;97613.63;4893683;29;20721;-73
2022/12/27 08:33:40;;;;;;;17.43;11.80;;;;;;;7.40;77.43;97618.56;4891288;29;20284;-72
2022/12/27 08:36:10;;;;;;;17.50;11.27;;;;;;;7.40;76.86;97618.56;4891297;29;20215;-73
2022/12/27 08:38:57;;;;;;;18.17;11.73;;;;;;;7.07;76.98;97583.28;4892708;29;20222;-72
2022/12/27 08:41:24;;;;;;;15.80;10.80;;;;;;;7.34;76.71;97631.59;4893442;29;20213;-71
2022/12/27 08:43:51;;;;;;;13.07;8.13;;;;;;;7.46;76.64;97633.88;4892124;29;20253;-74
2022/12/27 08:46:19;;;;;;;15.20;9.17;;;;;;;7.40;76.63;97641.75;4891167;29;20285;-73
2022/12/27 08:48:50;;;;;;;14.10;9.77;;;;;;;7.58;75.01;97618.13;4891272;29;20211;-72
2022/12/27 08:51:17;;;;;;;19.00;11.10;;;;;;;7.79;74.52;97627.88;4893277;29;20193;-73
2022/12/27 08:53:59;;;;;;;13.43;9.83;;;;;;;7.96;73.52;97630.88;4893063;29;20206;-72
2022/12/27 08:56:26;;;;;;;15.07;10.63;;;;;;;8.18;73.53;97616.53;4893262;29;20268;-73
2022/12/27 08:58:53;;;;;;;15.87;8.83;;;;;;;8.38;73.29;97617.75;4876345;29;20227;-73
2022/12/27 09:01:20;;;;;;;13.90;8.97;;;;;;;8.51;72.53;97603.63;4893203;29;20585;-73
2022/12/27 09:03:47;;;;;;;13.37;9.00;;;;;;;8.64;73.34;97603.22;4893807;29;20223;-72
2022/12/27 09:06:17;;;;;;;17.87;10.77;;;;;;;8.83;72.16;97606.09;4893057;29;20716;-72
2022/12/27 09:08:46;;;;;;;20.77;11.87;;;;;;;8.96;72.41;97604.84;4893395;29;20218;-73
2022/12/27 09:11:31;;;;;;;16.00;9.30;;;;;;;8.92;72.00;97593.75;4892386;29;20651;-73
2022/12/27 09:14:04;;;;;;;13.70;9.43;;;;;;;9.11;71.62;97609.53;4872832;29;20770;-72
2022/12/27 09:16:34;;;;;;;10.77;7.20;;;;;;;9.28;71.68;97596.09;4842091;29;20235;-74
2022/12/27 09:19:02;;;;;;;14.33;8.43;;;;;;;9.44;70.86;97592.97;4873962;29;20192;-73
2022/12/27 09:21:31;;;;;;;13.60;8.80;;;;;;;9.65;69.97;97597.44;4874364;29;20185;-72
2022/12/27 09:23:58;;;;;;;11.83;8.60;;;;;;;9.74;69.99;97589.38;4873566;29;20196;-73
2022/12/27 09:26:28;;;;;;;12.70;9.10;;;;;;;9.79;69.20;97576.25;4857458;29;21003;-73
2022/12/27 09:28:55;;;;;;;11.67;7.47;;;;;;;9.94;68.24;97587.84;4873715;29;20196;-73
2022/12/27 09:31:23;;;;;;;11.00;7.10;;;;;;;10.06;67.65;97561.53;4873405;29;20200;-73
2022/12/27 09:33:51;;;;;;;11.80;6.90;;;;;;;10.07;67.24;97555.47;4855539;29;20223;-72
2022/12/27 09:36:21;;;;;;;10.17;6.67;;;;;;;10.25;66.14;97575.53;4856749;29;20266;-73
2022/12/27 09:38:51;;;;;;;8.73;6.47;;;;;;;10.34;64.74;97557.09;4857016;29;20203;-73
2022/12/27 09:41:27;;;;;;;10.50;6.13;;;;;;;10.33;65.61;97545.03;4873598;29;20198;-73
2022/12/27 09:44:28;;;;;;;9.83;6.43;;;;;;;10.51;64.95;97554.72;4873339;29;20194;-73
2022/12/27 09:47:02;;;;;;;7.67;5.67;;;;;;;10.40;64.28;97543.94;4873105;29;20289;-73
2022/12/27 09:49:38;;;;;;;9.43;6.73;;;;;;;10.70;64.42;97547.09;4871294;29;20704;-74
2022/12/27 09:52:05;;;;;;;8.93;7.00;;;;;;;10.78;64.39;97540.72;4856286;29;20218;-72
2022/12/27 09:55:03;;;;;;;10.90;8.63;;;;;;;10.93;64.37;97526.34;4872105;29;20196;-73
2022/12/27 09:57:43;;;;;;;14.30;8.73;;;;;;;11.11;63.57;97535.97;4870409;29;20642;-73
2022/12/27 10:00:20;;;;;;;15.00;9.67;;;;;;;11.12;64.02;97529.91;4856093;29;20207;-74
2022/12/27 10:03:04;;;;;;;16.43;9.87;;;;;;;11.23;62.95;97523.34;4872319;29;20299;-73
2022/12/27 10:05:35;;;;;;;10.93;6.53;;;;;;;11.11;62.85;97523.84;4872992;29;20197;-73
2022/12/27 10:08:38;;;;;;;8.03;5.93;;;;;;;11.11;62.13;97534.22;4872558;29;20192;-72
2022/12/27 10:11:34;;;;;;;9.40;6.37;;;;;;;11.34;61.77;97539.34;4872288;29;20196;-73
2022/12/27 10:14:23;;;;;;;13.97;9.33;;;;;;;11.50;62.27;97531.75;4872698;29;21031;-75
2022/12/27 10:17:33;;;;;;;7.97;6.33;;;;;;;11.59;61.87;97530.53;4876463;29;20338;-73
2022/12/27 10:20:09;;;;;;;8.87;6.17;;;;;;;11.51;62.20;97527.41;4876093;29;20269;-73
2022/12/27 10:22:51;;;;;;;16.47;8.07;;;;;;;11.51;62.01;97501.47;4890581;29;20224;-73
2022/12/27 10:25:22;;;;;;;11.97;7.70;;;;;;;11.48;61.93;97505.88;4891019;29;20282;-73
2022/12/27 10:28:14;;;;;;;13.93;8.47;;;;;;;11.48;62.34;97505.03;4891175;29;20192;-73
2022/12/27 10:30:42;;;;;;;17.33;10.57;;;;;;;11.42;63.23;97503.56;4891476;29;20204;-73
2022/12/27 10:33:21;;;;;;;22.03;12.17;;;;;;;11.44;63.14;97509.53;4890891;29;20686;-72
2022/12/27 10:35:48;;;;;;;25.47;15.20;;;;;;;11.39;63.40;97508.88;4891846;29;20203;-74
2022/12/27 10:38:14;;;;;;;10.60;6.00;;;;;;;11.48;62.81;97492.06;4890110;29;20247;-73
2022/12/27 10:41:10;;;;;;;11.53;7.73;;;;;;;11.45;62.53;97497.41;4889964;29;20204;-73
2022/12/27 10:43:43;;;;;;;13.67;9.40;;;;;;;11.39;63.08;97498.50;4876974;29;20274;-72
2022/12/27 10:46:18;;;;;;;11.80;8.13;;;;;;;11.48;62.83;97496.44;4890861;29;20723;-70
2022/12/27 10:49:04;;;;;;;9.30;7.30;;;;;;;11.63;62.65;97490.59;4888262;29;20196;-69
2022/12/27 10:51:50;;;;;;;12.17;7.63;;;;;;;11.63;62.63;97500.97;4889902;29;20786;-74
2022/12/27 10:54:27;;;;;;;9.03;6.43;;;;;;;11.60;62.64;97496.78;4890797;29;20763;-74
2022/12/27 10:57:16;;;;;;;13.17;7.07;;;;;;;11.66;62.60;97480.09;4892580;29;20274;-73
2022/12/27 11:00:05;;;;;;;17.53;11.93;;;;;;;11.69;63.03;97474.78;4892321;29;20252;-75
2022/12/27 11:02:47;;;;;;;12.87;9.57;;;;;;;11.77;63.02;97485.66;4892304;29;20244;-73
2022/12/27 11:05:23;;;;;;;19.20;10.47;;;;;;;11.76;63.41;97471.88;4874325;29;20220;-73
2022/12/27 11:07:51;;;;;;;18.87;10.83;;;;;;;11.75;64.19;97469.31;4888978;29;20204;-73
2022/12/27 11:10:25;;;;;;;24.03;12.77;;;;;;;12.08;63.07;97467.84;4891587;29;20202;-72
2022/12/27 11:12:55;;;;;;;13.20;8.90;;;;;;;12.35;61.86;97477.00;4875363;29;20648;-73
2022/12/27 11:15:24;;;;;;;15.53;9.73;;;;;;;12.57;61.31;97466.47;4892972;29;20196;-71
2022/12/27 11:17:54;;;;;;;16.60;9.43;;;;;;;12.72;61.77;97469.16;4892589;29;20225;-70
2022/12/27 11:20:32;;;;;;;20.27;11.87;;;;;;;12.92;60.79;97457.84;4894490;29;20241;-73
2022/12/27 11:23:32;;;;;;;21.87;13.33;;;;;;;12.89;61.50;97435.44;4901987;29;21007;-74
2022/12/27 11:26:05;;;;;;;25.07;16.33;;;;;;;13.00;61.52;97447.91;4869804;29;20201;-73
2022/12/27 11:28:40;;;;;;;21.03;12.33;;;;;;;13.15;61.18;97439.38;4911275;29;20248;-73
2022/12/27 11:31:15;;;;;;;18.97;9.63;;;;;;;13.51;60.06;97441.88;4850111;29;20216;-73
2022/12/27 11:33:50;;;;;;;10.10;7.00;;;;;;;13.70;58.81;97442.63;4863579;29;20273;-74
2022/12/27 11:36:33;;;;;;;12.57;7.20;;;;;;;13.82;58.94;97423.78;4909478;29;20277;-73
2022/12/27 11:39:00;;;;;;;12.13;6.83;;;;;;;14.16;57.96;97436.69;4892988;29;20270;-73
2022/12/27 11:41:42;;;;;;;13.63;7.77;;;;;;;14.34;57.53;97440.09;4893671;29;20194;-75
2022/12/27 11:44:28;;;;;;;12.70;7.30;;;;;;;14.52;57.05;97439.09;4896155;29;20199;-73
2022/12/27 11:47:02;;;;;;;16.23;8.80;;;;;;;14.65;56.49;97440.09;4895604;29;20247;-75
2022/12/27 11:49:57;;;;;;;9.23;6.33;;;;;;;14.80;55.30;97433.16;4850629;29;20854;-74
2022/12/27 11:52:49;;;;;;;5.43;4.30;;;;;;;15.00;54.26;97438.13;4886188;29;20200;-74
2022/12/27 11:55:26;;;;;;;6.73;4.87;;;;;;;15.12;53.93;97434.81;4885098;29;20253;-73
2022/12/27 11:58:24;;;;;;;8.27;5.47;;;;;;;15.10;53.42;97436.66;4906472;29;21032;-73
2022/12/27 12:01:09;;;;;;;7.83;5.37;;;;;;;15.10;53.39;97427.09;4906498;29;20215;-74
2022/12/27 12:04:04;;;;;;;9.73;5.10;;;;;;;15.12;53.38;97429.59;4894349;29;20546;-72
2022/12/27 12:06:53;;;;;;;8.00;4.40;;;;;;;15.16;53.25;97428.50;4881057;29;20307;-73
2022/12/27 12:09:38;;;;;;;8.40;5.40;;;;;;;15.05;53.62;97425.63;4860569;29;20207;-74
2022/12/27 12:12:28;;;;;;;7.37;4.87;;;;;;;14.97;53.86;97420.88;4860654;29;20198;-72
2022/12/27 12:14:57;;;;;;;7.47;4.30;;;;;;;14.98;53.91;97417.31;4900789;29;20324;-74
2022/12/27 12:17:28;;;;;;;6.70;4.97;;;;;;;14.92;53.71;97425.50;4902518;29;20609;-74
2022/12/27 12:20:37;;;;;;;6.27;4.80;;;;;;;14.98;53.71;97429.53;4896569;29;20202;-73
2022/12/27 12:23:09;;;;;;;7.50;4.60;;;;;;;14.94;53.69;97441.09;4894475;29;20223;-74
2022/12/27 12:25:39;;;;;;;7.13;3.93;;;;;;;14.69;53.58;97395.50;4890507;29;20215;-72
2022/12/27 12:28:25;;;;;;;8.97;4.57;;;;;;;14.76;54.55;97442.09;4862907;29;20245;-74
2022/12/27 12:31:26;;;;;;;7.27;4.47;;;;;;;14.74;54.19;97438.72;4876290;29;20286;-74
2022/12/27 12:33:57;;;;;;;8.43;4.70;;;;;;;14.72;54.27;97440.59;4893742;29;20263;-73
2022/12/27 12:36:27;;;;;;;15.00;6.83;;;;;;;14.59;54.88;97436.06;4893511;29;20274;-73
2022/12/27 12:38:57;;;;;;;8.63;6.17;;;;;;;14.60;54.99;97432.53;4876421;29;20255;-73
2022/12/27 12:41:43;;;;;;;9.47;5.63;;;;;;;14.63;55.09;97448.00;4893095;29;20195;-74
2022/12/27 12:44:28;;;;;;;9.67;5.40;;;;;;;14.57;55.30;97445.72;4876119;29;20209;-73
2022/12/27 12:47:03;;;;;;;10.27;7.17;;;;;;;14.59;55.10;97448.25;4893195;29;20204;-73
2022/12/27 12:49:49;;;;;;;9.70;7.53;;;;;;;14.47;55.38;97452.38;4876034;29;20211;-74
2022/12/27 12:52:50;;;;;;;13.67;6.93;;;;;;;14.43;55.83;97456.06;4876489;29;20211;-73
2022/12/27 12:55:25;;;;;;;9.53;6.00;;;;;;;14.48;55.91;97459.28;4893286;29;20200;-73
2022/12/27 12:57:52;;;;;;;12.80;7.10;;;;;;;14.47;55.84;97461.94;4893179;29;20250;-73
2022/12/27 13:00:53;;;;;;;13.70;7.97;;;;;;;14.40;56.30;97445.81;4892917;29;20195;-73
2022/12/27 13:03:35;;;;;;;10.93;8.13;;;;;;;14.55;56.00;97465.81;4876642;29;20195;-74
2022/12/27 13:06:26;;;;;;;12.53;7.97;;;;;;;14.50;56.60;97457.44;4892629;29;20227;-73
2022/12/27 13:09:20;;;;;;;11.07;7.40;;;;;;;14.46;56.32;97466.34;4859414;29;20234;-74
2022/12/27 13:12:15;;;;;;;8.27;5.97;;;;;;;14.48;55.69;97445.41;4890704;29;20229;-74
2022/12/27 13:14:44;;;;;;;5.97;5.03;;;;;;;14.92;54.52;97472.44;4892814;29;20239;-74
2022/12/27 13:17:14;;;;;;;4.93;3.53;;;;;;;15.12;53.80;97471.34;4893153;29;20309;-73
2022/12/27 13:20:09;;;;;;;6.57;3.93;;;;;;;15.12;54.11;97466.13;4876135;29;20682;-74
2022/12/27 13:22:46;;;;;;;6.27;3.97;;;;;;;15.09;54.27;97466.28;4891588;29;20203;-71
2022/12/27 13:25:40;;;;;;;5.00;3.70;;;;;;;15.12;54.21;97472.19;4893207;29;20195;-74
2022/12/27 13:28:25;;;;;;;7.60;4.20;;;;;;;15.20;53.60;97471.72;4892755;29;20204;-74
2022/12/27 13:31:26;;;;;;;6.00;4.10;;;;;;;15.30;53.16;97459.84;4892564;29;20192;-74
2022/12/27 13:34:18;;;;;;;6.60;4.13;;;;;;;15.27;53.70;97470.47;4881002;29;20585;-73
2022/12/27 13:37:05;;;;;;;8.20;5.30;;;;;;;15.09;54.18;97455.84;4892567;29;20539;-73
2022/12/27 13:40:27;;;;;;;6.67;4.00;;;;;;;15.27;54.17;97476.50;4892827;29;20219;-74
2022/12/27 13:43:21;;;;;;;7.03;4.30;;;;;;;15.20;54.63;97501.28;4834363;29;20203;-73
2022/12/27 13:46:11;;;;;;;7.00;4.20;;;;;;;15.33;54.61;97496.22;4889979;29;20192;-72
2022/12/27 13:48:50;;;;;;;3.47;3.07;;;;;;;15.29;55.28;97495.53;4854958;29;20203;-73
2022/12/27 13:51:20;;;;;;;4.30;3.40;;;;;;;15.27;56.19;97509.59;4891429;29;20271;-73
2022/12/27 13:53:49;;;;;;;5.40;3.67;;;;;;;15.21;56.95;97502.09;4888677;29;20195;-72